Terminal Aerodrome Forecast
Issued by NWS

Home | Current Version | Previous Version | Text Only | Print | Product List | Glossary On
Versions: 1 2 3 4 5 6 7 8 9 10 11 12 13 14 15 16 17 18 19 20 21 22 23
000
FTUS43 KJKL 311403 AAB
TAFSME
TAF AMD
KSME 311403Z 3114/0112 24008KT P6SM BKN020
     FM311600 23009G17KT P6SM VCTS BKN035CB
     FM010100 VRB05KT P6SM BKN035
     FM010600 VRB03KT 4SM BR BKN015=

USA.gov is the U.S. government's official web portal to all federal, state and local government web resources and services.